createdAt,value
2023-03-03T00:00:57.501Z,0.00
2023-03-03T00:02:57.870Z,0.00
2023-03-03T00:04:58.112Z,0.00
2023-03-03T00:06:58.442Z,0.00
2023-03-03T00:08:58.737Z,0.00
2023-03-03T00:10:59.038Z,0.00
2023-03-03T00:12:59.339Z,0.00
2023-03-03T00:14:59.740Z,0.00
2023-03-03T00:17:00.156Z,0.00
2023-03-03T00:19:00.433Z,0.00
2023-03-03T00:21:00.746Z,0.00
2023-03-03T00:23:01.077Z,0.00
2023-03-03T00:25:01.398Z,0.00
2023-03-03T00:27:01.674Z,0.00
2023-03-03T00:29:02.036Z,0.00
2023-03-03T00:31:02.362Z,0.00
2023-03-03T00:33:02.614Z,0.00
2023-03-03T00:35:03.075Z,0.00
2023-03-03T00:37:03.336Z,0.00
2023-03-03T00:39:03.642Z,0.00
2023-03-03T00:41:03.952Z,0.00
2023-03-03T00:43:04.292Z,0.00
2023-03-03T00:45:04.649Z,0.00
2023-03-03T00:47:05.038Z,0.00
2023-03-03T00:49:05.304Z,0.00
2023-03-03T00:51:05.662Z,0.00
2023-03-03T00:53:05.993Z,0.00
2023-03-03T00:55:06.796Z,0.00
2023-03-03T00:57:07.091Z,0.00
2023-03-03T00:59:07.406Z,0.00
2023-03-03T01:01:07.773Z,0.00
2023-03-03T01:03:08.129Z,0.00
2023-03-03T01:05:08.447Z,0.00
2023-03-03T01:07:08.720Z,0.00
2023-03-03T01:09:09.009Z,0.00
2023-03-03T01:11:09.317Z,0.00
2023-03-03T01:13:09.626Z,0.00
2023-03-03T01:15:09.967Z,0.00
2023-03-03T01:17:10.352Z,0.00
2023-03-03T01:19:10.629Z,0.00
2023-03-03T01:21:10.897Z,0.00
2023-03-03T01:23:11.250Z,0.00
2023-03-03T01:25:11.556Z,0.00
2023-03-03T01:27:11.828Z,0.00
2023-03-03T01:29:12.322Z,0.00
2023-03-03T01:31:12.644Z,0.00
2023-03-03T01:33:12.994Z,0.00
2023-03-03T01:35:13.283Z,0.00
2023-03-03T01:37:13.601Z,0.00
2023-03-03T01:39:13.952Z,0.00
2023-03-03T01:41:14.237Z,0.00
2023-03-03T01:43:14.635Z,0.00
2023-03-03T01:45:14.922Z,0.00
2023-03-03T01:47:15.172Z,0.00
2023-03-03T01:49:16.236Z,0.00
2023-03-03T01:51:16.481Z,0.00
2023-03-03T01:53:16.784Z,0.00
2023-03-03T01:55:17.086Z,0.00
2023-03-03T01:57:17.511Z,0.00
2023-03-03T01:59:17.839Z,0.00
2023-03-03T02:01:18.325Z,0.00
2023-03-03T02:03:18.606Z,0.00
2023-03-03T02:05:18.926Z,0.00
2023-03-03T02:07:19.247Z,0.00
2023-03-03T02:09:19.567Z,0.00
2023-03-03T02:11:19.813Z,0.00
2023-03-03T02:13:20.193Z,0.00
2023-03-03T02:15:20.466Z,0.00
2023-03-03T02:17:20.772Z,0.00
2023-03-03T02:19:21.095Z,0.00
2023-03-03T02:21:21.374Z,0.00
2023-03-03T02:23:21.695Z,0.00
2023-03-03T02:25:22.224Z,0.00
2023-03-03T02:27:27.397Z,0.00
2023-03-03T02:29:27.674Z,0.00
2023-03-03T02:31:28.077Z,0.00
2023-03-03T02:33:28.337Z,0.00
2023-03-03T02:35:28.710Z,0.00
2023-03-03T02:37:29.151Z,0.00
2023-03-03T02:39:29.434Z,0.00
2023-03-03T02:41:29.769Z,0.00
2023-03-03T02:43:30.070Z,0.00
2023-03-03T02:45:30.563Z,0.00
2023-03-03T02:47:31.246Z,0.00
2023-03-03T02:49:31.576Z,0.00
2023-03-03T02:51:32.720Z,0.00
2023-03-03T02:53:33.680Z,0.00
2023-03-03T02:55:33.986Z,0.00
2023-03-03T02:57:34.324Z,0.00
2023-03-03T02:59:34.573Z,0.00
2023-03-03T03:01:34.934Z,0.00
2023-03-03T03:03:35.212Z,0.00
2023-03-03T03:05:35.540Z,0.00
2023-03-03T03:07:35.832Z,0.00
2023-03-03T03:09:36.166Z,0.00
2023-03-03T03:11:36.613Z,0.00
2023-03-03T03:13:36.867Z,0.00
2023-03-03T03:15:37.232Z,0.00
2023-03-03T03:17:37.512Z,0.00
2023-03-03T03:19:37.812Z,0.00
2023-03-03T03:21:38.370Z,0.00
2023-03-03T03:23:38.887Z,0.00
2023-03-03T03:25:39.176Z,0.00
2023-03-03T03:27:39.445Z,0.00
2023-03-03T03:29:39.810Z,0.00
2023-03-03T03:31:40.075Z,0.00
2023-03-03T03:33:40.449Z,0.00
2023-03-03T03:35:40.732Z,0.00
2023-03-03T03:37:41.055Z,0.00
2023-03-03T03:39:41.385Z,0.00
2023-03-03T03:41:41.639Z,0.00
2023-03-03T03:43:41.999Z,0.00
2023-03-03T03:45:42.402Z,0.00
2023-03-03T03:47:42.677Z,0.00
2023-03-03T03:49:42.990Z,0.00
2023-03-03T03:51:43.382Z,0.00
2023-03-03T03:53:43.667Z,0.00
2023-03-03T03:55:44.004Z,0.00
2023-03-03T03:57:49.141Z,0.00
2023-03-03T03:59:49.449Z,0.00
2023-03-03T04:01:49.805Z,0.00
2023-03-03T04:03:50.067Z,0.00
2023-03-03T04:05:51.206Z,0.00
2023-03-03T04:07:51.557Z,0.00
2023-03-03T04:09:52.641Z,0.00
2023-03-03T04:11:52.999Z,0.00
2023-03-03T04:13:58.141Z,0.00
2023-03-03T04:15:58.536Z,0.00
2023-03-03T04:17:59.055Z,0.00
2023-03-03T04:19:59.311Z,0.00
2023-03-03T04:21:59.637Z,0.00
2023-03-03T04:23:59.938Z,0.00
2023-03-03T04:26:00.281Z,0.00
2023-03-03T04:28:00.579Z,0.00
2023-03-03T04:30:00.835Z,0.00
2023-03-03T04:32:01.159Z,0.00
2023-03-03T04:34:01.439Z,0.00
2023-03-03T04:36:01.744Z,0.00
2023-03-03T04:38:02.115Z,0.00
2023-03-03T04:40:02.370Z,0.00
2023-03-03T04:42:02.651Z,0.00
2023-03-03T04:44:02.944Z,0.00
2023-03-03T04:46:03.273Z,0.00
2023-03-03T04:48:03.599Z,0.00
2023-03-03T04:50:03.874Z,0.00
2023-03-03T04:52:04.190Z,0.00
2023-03-03T04:54:04.509Z,0.00
2023-03-03T04:56:04.789Z,0.00
2023-03-03T04:58:05.205Z,0.00
2023-03-03T05:00:05.516Z,0.00
2023-03-03T05:02:05.838Z,0.00
2023-03-03T05:04:06.649Z,0.00
2023-03-03T05:06:06.962Z,0.00
2023-03-03T05:08:07.210Z,0.00
2023-03-03T05:10:07.592Z,0.00
2023-03-03T05:12:07.909Z,0.00
2023-03-03T05:14:08.211Z,0.00
2023-03-03T05:16:08.607Z,0.00
2023-03-03T05:18:08.889Z,0.00
2023-03-03T05:20:10.147Z,0.00
2023-03-03T05:22:10.656Z,0.00
2023-03-03T05:24:15.905Z,0.00
2023-03-03T05:26:16.269Z,0.00
2023-03-03T05:28:16.618Z,0.00
2023-03-03T05:30:16.867Z,0.00
2023-03-03T05:32:17.248Z,0.00
2023-03-03T05:34:17.522Z,0.00
2023-03-03T05:36:17.969Z,0.00
2023-03-03T05:38:18.350Z,0.00
2023-03-03T05:40:18.743Z,0.00
2023-03-03T05:42:19.014Z,0.00
2023-03-03T05:44:20.722Z,0.00
2023-03-03T05:46:21.167Z,0.00
2023-03-03T05:48:21.426Z,0.00
2023-03-03T05:50:21.912Z,0.00
2023-03-03T05:52:22.160Z,0.00
2023-03-03T05:54:22.447Z,0.00
2023-03-03T05:56:22.768Z,0.00
2023-03-03T05:58:23.080Z,0.00
2023-03-03T06:00:23.337Z,0.00
2023-03-03T06:02:23.630Z,0.00
2023-03-03T06:04:23.970Z,0.00
2023-03-03T06:06:24.246Z,5.62
2023-03-03T06:08:24.606Z,5.62
2023-03-03T06:10:24.859Z,5.62
2023-03-03T06:12:25.155Z,5.62
2023-03-03T06:14:27.155Z,11.25
2023-03-03T06:16:27.645Z,11.25
2023-03-03T06:18:27.937Z,11.25
2023-03-03T06:20:28.244Z,11.25
2023-03-03T06:22:28.485Z,16.88
2023-03-03T06:24:28.804Z,16.88
2023-03-03T06:26:32.239Z,16.88
2023-03-03T06:28:32.535Z,22.50
2023-03-03T06:30:32.901Z,22.50
2023-03-03T06:32:33.192Z,22.50
2023-03-03T06:34:33.883Z,28.12
2023-03-03T06:36:34.176Z,28.12
2023-03-03T06:38:34.468Z,28.12
2023-03-03T06:40:34.841Z,33.75
2023-03-03T06:42:39.971Z,33.75
2023-03-03T06:44:40.336Z,39.38
2023-03-03T06:46:40.593Z,39.38
2023-03-03T06:48:40.925Z,39.38
2023-03-03T06:50:41.216Z,39.38
2023-03-03T06:52:41.493Z,45.00
2023-03-03T06:54:41.793Z,45.00
2023-03-03T06:56:42.088Z,45.00
2023-03-03T06:58:42.408Z,50.62
2023-03-03T07:00:42.709Z,50.62
2023-03-03T07:02:43.042Z,50.62
2023-03-03T07:04:43.303Z,50.62
2023-03-03T07:06:44.165Z,56.25
2023-03-03T07:08:44.463Z,56.25
2023-03-03T07:10:44.726Z,56.25
2023-03-03T07:12:45.049Z,61.88
2023-03-03T07:14:45.333Z,61.88
2023-03-03T07:16:45.685Z,61.88
2023-03-03T07:18:45.969Z,61.88
2023-03-03T07:20:46.259Z,67.50
2023-03-03T07:22:46.605Z,67.50
2023-03-03T07:24:46.870Z,67.50
2023-03-03T07:26:47.174Z,67.50
2023-03-03T07:28:47.466Z,73.12
2023-03-03T07:30:48.717Z,73.12
2023-03-03T07:32:48.982Z,73.12
2023-03-03T07:34:49.335Z,73.12
2023-03-03T07:36:49.606Z,78.75
2023-03-03T07:38:49.899Z,78.75
2023-03-03T07:40:50.218Z,78.75
2023-03-03T07:42:50.520Z,78.75
2023-03-03T07:44:50.835Z,78.75
2023-03-03T07:46:51.126Z,84.38
2023-03-03T07:48:51.437Z,84.38
2023-03-03T07:50:51.731Z,84.38
2023-03-03T07:52:52.046Z,84.38
2023-03-03T07:54:52.400Z,84.38
2023-03-03T07:56:52.697Z,90.00
2023-03-03T07:58:53.760Z,90.00
2023-03-03T08:00:54.721Z,90.00
2023-03-03T08:02:55.009Z,90.00
2023-03-03T08:04:55.583Z,90.00
2023-03-03T08:06:55.881Z,90.00
2023-03-03T08:08:56.154Z,95.62
2023-03-03T08:10:56.492Z,95.62
2023-03-03T08:12:56.768Z,95.62
2023-03-03T08:14:57.030Z,95.62
2023-03-03T08:16:59.208Z,95.62
2023-03-03T08:19:00.723Z,101.25
2023-03-03T08:21:01.033Z,101.25
2023-03-03T08:23:01.333Z,101.25
2023-03-03T08:25:01.644Z,101.25
2023-03-03T08:27:01.920Z,101.25
2023-03-03T08:29:02.199Z,101.25
2023-03-03T08:31:16.377Z,106.88
2023-03-03T08:33:07.691Z,106.88
2023-03-03T08:35:08.005Z,106.88
2023-03-03T08:37:08.666Z,106.88
2023-03-03T08:39:09.042Z,106.88
2023-03-03T08:41:09.332Z,106.88
2023-03-03T08:43:09.700Z,106.88
2023-03-03T08:45:09.953Z,106.88
2023-03-03T08:47:10.278Z,106.88
2023-03-03T08:49:10.554Z,112.50
2023-03-03T08:51:10.935Z,112.50
2023-03-03T08:53:11.280Z,112.50
2023-03-03T08:55:11.550Z,112.50
2023-03-03T08:57:11.863Z,112.50
2023-03-03T08:59:12.678Z,118.12
2023-03-03T09:01:12.991Z,118.12
2023-03-03T09:03:13.269Z,118.12
2023-03-03T09:05:13.586Z,118.12
2023-03-03T09:07:13.915Z,118.12
2023-03-03T09:09:14.233Z,118.12
2023-03-03T09:11:15.184Z,123.75
2023-03-03T09:13:15.460Z,123.75
2023-03-03T09:15:15.779Z,123.75
2023-03-03T09:17:16.072Z,123.75
2023-03-03T09:19:16.380Z,123.75
2023-03-03T09:21:16.690Z,123.75
2023-03-03T09:23:16.947Z,129.38
2023-03-03T09:25:17.281Z,129.38
2023-03-03T09:27:17.583Z,129.38
2023-03-03T09:29:17.848Z,129.38
2023-03-03T09:31:18.211Z,129.38
2023-03-03T09:33:18.474Z,135.00
2023-03-03T09:35:18.849Z,135.00
2023-03-03T09:37:19.120Z,135.00
2023-03-03T09:39:19.466Z,135.00
2023-03-03T09:41:19.804Z,135.00
2023-03-03T09:43:20.090Z,135.00
2023-03-03T09:45:20.371Z,140.62
2023-03-03T09:47:22.241Z,140.62
2023-03-03T09:49:23.803Z,140.62
2023-03-03T09:51:25.522Z,140.62
2023-03-03T09:53:25.850Z,140.62
2023-03-03T09:55:26.111Z,146.25
2023-03-03T09:57:26.421Z,146.25
2023-03-03T09:59:26.715Z,146.25
2023-03-03T10:01:27.019Z,140.62
2023-03-03T10:03:27.382Z,140.62
2023-03-03T10:05:27.709Z,146.25
2023-03-03T10:07:27.995Z,146.25
2023-03-03T10:09:28.571Z,146.25
2023-03-03T10:11:28.860Z,146.25
2023-03-03T10:13:29.118Z,146.25
2023-03-03T10:15:29.443Z,146.25
2023-03-03T10:17:29.766Z,151.88
2023-03-03T10:19:30.078Z,151.88
2023-03-03T10:21:30.358Z,151.88
2023-03-03T10:23:30.751Z,151.88
2023-03-03T10:25:31.004Z,151.88
2023-03-03T10:27:31.317Z,151.88
2023-03-03T10:29:31.611Z,151.88
2023-03-03T10:31:32.005Z,151.88
2023-03-03T10:33:32.367Z,157.50
2023-03-03T10:35:32.735Z,151.88
2023-03-03T10:37:32.968Z,151.88
2023-03-03T10:39:33.241Z,151.88
2023-03-03T10:41:33.570Z,151.88
2023-03-03T10:43:33.842Z,157.50
2023-03-03T10:45:34.176Z,157.50
2023-03-03T10:47:34.457Z,157.50
2023-03-03T10:49:34.804Z,157.50
2023-03-03T10:51:35.123Z,157.50
2023-03-03T10:53:35.411Z,157.50
2023-03-03T10:55:39.027Z,163.12
2023-03-03T10:57:39.697Z,163.12
2023-03-03T10:59:40.003Z,163.12
2023-03-03T11:01:40.302Z,163.12
2023-03-03T11:03:40.644Z,163.12
2023-03-03T11:05:40.971Z,168.75
2023-03-03T11:07:41.265Z,168.75
2023-03-03T11:09:41.506Z,168.75
2023-03-03T11:11:41.823Z,168.75
2023-03-03T11:13:42.102Z,168.75
2023-03-03T11:15:42.403Z,174.38
2023-03-03T11:17:42.690Z,174.38
2023-03-03T11:19:42.986Z,174.38
2023-03-03T11:21:43.297Z,174.38
2023-03-03T11:23:43.586Z,174.38
2023-03-03T11:25:43.839Z,174.38
2023-03-03T11:27:44.160Z,180.00
2023-03-03T11:29:44.446Z,180.00
2023-03-03T11:31:44.732Z,180.00
2023-03-03T11:33:45.082Z,180.00
2023-03-03T11:35:45.403Z,185.62
2023-03-03T11:37:45.709Z,185.62
2023-03-03T11:39:45.980Z,185.62
2023-03-03T11:41:46.296Z,185.62
2023-03-03T11:43:46.576Z,191.25
2023-03-03T11:45:46.862Z,185.62
2023-03-03T11:47:47.139Z,191.25
2023-03-03T11:49:47.454Z,191.25
2023-03-03T11:51:47.751Z,191.25
2023-03-03T11:53:48.064Z,191.25
2023-03-03T11:55:48.361Z,191.25
2023-03-03T11:57:48.671Z,191.25
2023-03-03T11:59:48.986Z,191.25
2023-03-03T12:01:49.420Z,196.88
2023-03-03T12:03:49.715Z,196.88
2023-03-03T12:05:50.051Z,196.88
2023-03-03T12:07:50.340Z,196.88
2023-03-03T12:09:50.638Z,196.88
2023-03-03T12:11:53.511Z,196.88
2023-03-03T12:13:54.639Z,196.88
2023-03-03T12:15:55.019Z,196.88
2023-03-03T12:17:55.314Z,196.88
2023-03-03T12:19:55.662Z,202.50
2023-03-03T12:21:55.969Z,202.50
2023-03-03T12:23:56.264Z,208.12
2023-03-03T12:25:56.549Z,208.12
2023-03-03T12:27:56.871Z,213.75
2023-03-03T12:29:57.125Z,219.38
2023-03-03T12:31:57.468Z,219.38
2023-03-03T12:33:57.727Z,225.00
2023-03-03T12:35:58.104Z,230.62
2023-03-03T12:37:58.335Z,230.62
2023-03-03T12:39:58.636Z,236.25
2023-03-03T12:41:58.978Z,241.88
2023-03-03T12:43:59.269Z,241.88
2023-03-03T12:45:59.553Z,247.50
2023-03-03T12:47:59.851Z,247.50
2023-03-03T12:50:06.749Z,253.12
2023-03-03T12:52:05.330Z,253.12
2023-03-03T12:54:05.645Z,253.12
2023-03-03T12:56:05.957Z,258.75
2023-03-03T12:58:06.231Z,264.38
2023-03-03T13:00:06.552Z,264.38
2023-03-03T13:02:06.821Z,264.38
2023-03-03T13:04:07.378Z,264.38
2023-03-03T13:06:07.737Z,264.38
2023-03-03T13:08:08.285Z,264.38
2023-03-03T13:10:08.800Z,270.00
2023-03-03T13:12:09.138Z,275.62
2023-03-03T13:14:09.401Z,275.62
2023-03-03T13:16:10.082Z,275.62
2023-03-03T13:18:10.431Z,275.62
2023-03-03T13:20:10.732Z,281.25
2023-03-03T13:22:11.007Z,292.50
2023-03-03T13:24:11.315Z,286.88
2023-03-03T13:26:11.627Z,286.88
2023-03-03T13:28:11.884Z,292.50
2023-03-03T13:30:12.197Z,292.50
2023-03-03T13:32:12.589Z,292.50
2023-03-03T13:34:13.087Z,292.50
2023-03-03T13:36:56.301Z,286.88
2023-03-03T13:38:56.614Z,286.88
2023-03-03T13:40:56.922Z,286.88
2023-03-03T13:42:57.605Z,286.88
2023-03-03T13:44:57.899Z,286.88
2023-03-03T13:46:58.222Z,286.88
2023-03-03T13:48:58.569Z,281.25
2023-03-03T13:50:58.828Z,281.25
2023-03-03T13:52:59.265Z,281.25
2023-03-03T13:54:59.589Z,281.25
2023-03-03T13:57:00.040Z,281.25
2023-03-03T13:59:00.351Z,281.25
2023-03-03T14:01:00.741Z,281.25
2023-03-03T14:03:05.881Z,286.88
2023-03-03T14:05:06.235Z,281.25
2023-03-03T14:07:11.435Z,275.62
2023-03-03T14:09:11.812Z,275.62
2023-03-03T14:11:12.101Z,270.00
2023-03-03T14:13:12.384Z,270.00
2023-03-03T14:15:12.674Z,270.00
2023-03-03T14:17:13.006Z,270.00
2023-03-03T14:19:13.302Z,270.00
2023-03-03T14:21:13.619Z,270.00
2023-03-03T14:23:13.954Z,270.00
2023-03-03T14:25:14.343Z,270.00
2023-03-03T14:27:14.728Z,270.00
2023-03-03T14:29:14.986Z,270.00
2023-03-03T14:31:20.203Z,270.00
2023-03-03T14:33:20.566Z,264.38
2023-03-03T14:35:20.887Z,264.38
2023-03-03T14:37:21.192Z,264.38
2023-03-03T14:39:21.506Z,264.38
2023-03-03T14:41:21.886Z,264.38
2023-03-03T14:43:22.353Z,264.38
2023-03-03T14:45:33.791Z,264.38
2023-03-03T14:47:27.866Z,264.38
2023-03-03T14:49:28.179Z,258.75
2023-03-03T14:51:28.489Z,258.75
2023-03-03T14:53:28.796Z,253.12
2023-03-03T14:55:29.075Z,247.50
2023-03-03T14:57:29.524Z,247.50
2023-03-03T14:59:29.852Z,247.50
2023-03-03T15:01:30.239Z,247.50
2023-03-03T15:03:30.539Z,247.50
2023-03-03T15:05:30.891Z,247.50
2023-03-03T15:07:31.174Z,236.25
2023-03-03T15:09:31.474Z,236.25
2023-03-03T15:11:31.759Z,236.25
2023-03-03T15:13:33.111Z,236.25
2023-03-03T15:15:33.428Z,236.25
2023-03-03T15:17:33.755Z,236.25
2023-03-03T15:19:34.047Z,236.25
2023-03-03T15:21:34.338Z,236.25
2023-03-03T15:23:34.661Z,241.88
2023-03-03T15:25:43.270Z,236.25
2023-03-03T15:27:40.173Z,230.62
2023-03-03T15:29:40.565Z,225.00
2023-03-03T15:31:40.884Z,236.25
2023-03-03T15:33:41.251Z,230.62
2023-03-03T15:35:41.564Z,230.62
2023-03-03T15:37:41.882Z,180.00
2023-03-03T15:39:43.023Z,191.25
2023-03-03T15:41:43.428Z,202.50
2023-03-03T15:43:45.323Z,191.25
2023-03-03T15:45:45.633Z,185.62
2023-03-03T15:47:45.922Z,174.38
2023-03-03T15:49:46.238Z,174.38
2023-03-03T15:52:31.327Z,163.12
2023-03-03T15:54:31.608Z,157.50
2023-03-03T15:56:31.920Z,151.88
2023-03-03T15:58:32.203Z,140.62
2023-03-03T16:00:32.558Z,129.38
2023-03-03T16:02:32.917Z,118.12
2023-03-03T16:04:33.246Z,101.25
2023-03-03T16:06:33.495Z,84.38
2023-03-03T16:08:33.840Z,78.75
2023-03-03T16:10:34.094Z,73.12
2023-03-03T16:12:34.400Z,61.88
2023-03-03T16:14:34.752Z,50.62
2023-03-03T16:16:35.082Z,61.88
2023-03-03T16:19:16.920Z,61.88
2023-03-03T16:21:17.220Z,61.88
2023-03-03T16:23:17.512Z,61.88
2023-03-03T16:25:17.819Z,56.25
2023-03-03T17:46:43.622Z,0.00
2023-03-03T17:48:43.894Z,0.00
2023-03-03T17:50:44.182Z,0.00
2023-03-03T17:52:44.493Z,0.00
2023-03-03T17:54:44.817Z,0.00
2023-03-03T17:56:45.084Z,0.00
2023-03-03T17:58:45.488Z,0.00
2023-03-03T18:00:45.769Z,0.00
2023-03-03T18:02:46.135Z,0.00
2023-03-03T18:04:46.399Z,0.00
2023-03-03T18:06:46.696Z,0.00
2023-03-03T18:08:48.542Z,0.00
2023-03-03T18:10:48.854Z,0.00
2023-03-03T18:12:49.115Z,0.00
2023-03-03T18:14:49.402Z,0.00
2023-03-03T18:16:49.747Z,0.00
2023-03-03T18:18:50.037Z,0.00
2023-03-03T18:20:50.328Z,0.00
2023-03-03T18:22:50.603Z,0.00
2023-03-03T18:24:50.940Z,0.00
2023-03-03T18:26:51.206Z,0.00
2023-03-03T18:28:51.526Z,0.00
2023-03-03T18:30:51.838Z,0.00
2023-03-03T18:32:52.106Z,0.00
2023-03-03T18:34:52.437Z,0.00
2023-03-03T18:36:52.738Z,0.00
2023-03-03T18:38:53.009Z,0.00
2023-03-03T18:40:53.343Z,0.00
2023-03-03T18:42:53.609Z,0.00
2023-03-03T18:44:53.988Z,0.00
2023-03-03T18:46:54.264Z,0.00
2023-03-03T18:48:55.551Z,0.00
2023-03-03T18:50:55.875Z,0.00
2023-03-03T18:52:56.161Z,0.00
2023-03-03T18:54:56.442Z,0.00
2023-03-03T18:56:57.083Z,0.00
2023-03-03T18:58:57.387Z,0.00
2023-03-03T19:00:57.651Z,0.00
2023-03-03T19:02:57.969Z,0.00
2023-03-03T19:04:59.078Z,0.00
2023-03-03T19:06:59.377Z,0.00
2023-03-03T19:08:59.676Z,0.00
2023-03-03T19:11:00.043Z,0.00
2023-03-03T19:13:00.374Z,0.00
2023-03-03T19:15:00.667Z,0.00
2023-03-03T19:17:00.990Z,0.00
2023-03-03T19:19:01.278Z,0.00
2023-03-03T19:21:01.556Z,0.00
2023-03-03T19:23:01.902Z,0.00
2023-03-03T19:25:02.183Z,0.00
2023-03-03T19:27:02.474Z,0.00
2023-03-03T19:29:02.810Z,0.00
2023-03-03T19:31:03.156Z,0.00
2023-03-03T19:33:08.317Z,0.00
2023-03-03T19:35:08.632Z,0.00
2023-03-03T19:37:08.882Z,0.00
2023-03-03T19:39:09.250Z,0.00
2023-03-03T19:41:09.559Z,0.00
2023-03-03T19:43:09.915Z,0.00
2023-03-03T19:45:10.350Z,0.00
2023-03-03T19:47:10.644Z,0.00
2023-03-03T19:49:10.920Z,0.00
2023-03-03T19:51:11.270Z,0.00
2023-03-03T19:53:11.611Z,0.00
2023-03-03T19:55:11.908Z,0.00
2023-03-03T19:57:12.173Z,0.00
2023-03-03T19:59:12.449Z,0.00
2023-03-03T20:01:12.837Z,0.00
2023-03-03T20:03:13.116Z,0.00
2023-03-03T20:05:13.456Z,0.00
2023-03-03T20:07:13.777Z,0.00
2023-03-03T20:09:14.150Z,0.00
2023-03-03T20:11:14.452Z,0.00
2023-03-03T20:13:14.740Z,0.00
2023-03-03T20:15:15.090Z,0.00
2023-03-03T20:17:15.345Z,0.00
2023-03-03T20:19:15.651Z,0.00
2023-03-03T20:21:15.960Z,0.00
2023-03-03T20:23:16.242Z,0.00
2023-03-03T20:25:16.528Z,0.00
2023-03-03T20:27:16.861Z,0.00
2023-03-03T20:29:17.145Z,0.00
2023-03-03T20:31:17.512Z,0.00
2023-03-03T20:33:17.770Z,0.00
2023-03-03T20:35:18.125Z,0.00
2023-03-03T20:37:18.450Z,0.00
2023-03-03T20:39:18.730Z,0.00
2023-03-03T20:41:19.033Z,0.00
2023-03-03T20:43:19.385Z,0.00
2023-03-03T20:45:19.655Z,0.00
2023-03-03T20:47:19.955Z,0.00
2023-03-03T20:49:20.318Z,0.00
2023-03-03T20:51:20.627Z,0.00
2023-03-03T20:53:20.982Z,0.00
2023-03-03T20:55:21.266Z,0.00
2023-03-03T20:57:21.539Z,0.00
2023-03-03T20:59:21.864Z,0.00
2023-03-03T21:01:22.213Z,0.00
2023-03-03T21:03:22.585Z,0.00
2023-03-03T21:05:22.862Z,0.00
2023-03-03T21:07:23.190Z,0.00
2023-03-03T21:09:23.497Z,0.00
2023-03-03T21:11:23.766Z,0.00
2023-03-03T21:13:24.080Z,0.00
2023-03-03T21:15:25.132Z,0.00
2023-03-03T21:17:25.593Z,0.00
2023-03-03T21:19:26.184Z,0.00
2023-03-03T21:21:26.446Z,0.00
2023-03-03T21:23:26.781Z,0.00
2023-03-03T21:25:27.066Z,0.00
2023-03-03T21:27:27.366Z,0.00
2023-03-03T21:29:27.685Z,0.00
2023-03-03T21:31:27.968Z,0.00
2023-03-03T21:33:28.216Z,0.00
2023-03-03T21:35:28.577Z,0.00
2023-03-03T21:37:28.820Z,0.00
2023-03-03T21:39:29.161Z,0.00
2023-03-03T21:41:29.430Z,0.00
2023-03-03T21:43:29.689Z,0.00
2023-03-03T21:45:30.009Z,0.00
2023-03-03T21:47:30.307Z,0.00
2023-03-03T21:49:30.566Z,0.00
2023-03-03T21:51:30.887Z,0.00
2023-03-03T21:53:31.172Z,0.00
2023-03-03T21:55:31.505Z,0.00
2023-03-03T21:57:32.240Z,0.00
2023-03-03T21:59:32.672Z,0.00
2023-03-03T22:01:33.068Z,0.00
2023-03-03T22:03:33.367Z,0.00
2023-03-03T22:05:33.699Z,0.00
2023-03-03T22:07:34.053Z,0.00
2023-03-03T22:09:34.392Z,0.00
2023-03-03T22:11:34.732Z,0.00
2023-03-03T22:13:35.048Z,0.00
2023-03-03T22:15:35.618Z,0.00
2023-03-03T22:17:35.914Z,0.00
2023-03-03T22:19:36.211Z,0.00
2023-03-03T22:21:36.513Z,0.00
2023-03-03T22:23:38.591Z,0.00
2023-03-03T22:25:38.890Z,0.00
2023-03-03T22:27:41.082Z,0.00
2023-03-03T22:29:41.475Z,0.00
2023-03-03T22:31:41.774Z,0.00
2023-03-03T22:33:43.084Z,0.00
2023-03-03T22:35:43.507Z,0.00
2023-03-03T22:37:43.755Z,0.00
2023-03-03T22:39:44.060Z,0.00
2023-03-03T22:41:44.358Z,0.00
2023-03-03T22:43:46.760Z,0.00
2023-03-03T22:45:47.127Z,0.00
2023-03-03T22:47:48.110Z,0.00
2023-03-03T22:49:48.429Z,0.00
2023-03-03T22:51:48.819Z,0.00
2023-03-03T22:53:49.079Z,0.00
2023-03-03T22:55:49.478Z,0.00
2023-03-03T22:57:49.823Z,0.00
2023-03-03T22:59:50.106Z,0.00
2023-03-03T23:01:50.410Z,0.00
2023-03-03T23:03:51.120Z,0.00
2023-03-03T23:05:52.133Z,0.00
2023-03-03T23:07:52.475Z,0.00
2023-03-03T23:09:52.799Z,0.00
2023-03-03T23:11:53.087Z,0.00
2023-03-03T23:13:53.405Z,0.00
2023-03-03T23:15:53.771Z,0.00
2023-03-03T23:17:54.141Z,0.00
2023-03-03T23:19:54.426Z,0.00
2023-03-03T23:21:54.735Z,0.00
2023-03-03T23:23:55.060Z,0.00
2023-03-03T23:25:55.342Z,0.00
2023-03-03T23:27:55.612Z,0.00
2023-03-03T23:29:55.949Z,0.00
2023-03-03T23:31:56.277Z,0.00
2023-03-03T23:33:56.510Z,0.00
2023-03-03T23:35:56.970Z,0.00
2023-03-03T23:37:57.245Z,0.00
2023-03-03T23:40:02.469Z,0.00
2023-03-03T23:42:02.748Z,0.00
2023-03-03T23:44:03.069Z,0.00
2023-03-03T23:46:03.352Z,0.00
2023-03-03T23:48:03.739Z,0.00
2023-03-03T23:50:04.007Z,0.00
2023-03-03T23:52:04.328Z,0.00
2023-03-03T23:54:04.692Z,0.00
2023-03-03T23:56:04.992Z,0.00
2023-03-03T23:58:05.333Z,0.00
